Time;durP1;ratioP1;P1;durP2;ratioP2;P2;SDS_P1;SDS_P2;PMS_P1;PMS_P2;Temp;Humidity;BMP_temperature;BMP_pressure;BME280_temperature;BME280_humidity;BME280_pressure;Samples;Min_cycle;Max_cycle;Signal;HPM_P1;HPM_P2
2022/05/21 00:01:21;;;;;;;2.83;2.63;;;18.80;83.30;;;;;;5069966;28;20220;-60
2022/05/21 00:03:49;;;;;;;3.00;2.80;;;18.80;83.60;;;;;;5068026;28;20189;-60
2022/05/21 00:06:16;;;;;;;2.65;2.45;;;18.80;83.70;;;;;;5069140;28;20588;-59
2022/05/21 00:08:43;;;;;;;2.60;2.40;;;18.80;83.70;;;;;;5067903;28;20193;-59
2022/05/21 00:11:12;;;;;;;2.70;2.50;;;18.70;84.40;;;;;;5069351;28;20295;-59
2022/05/21 00:13:39;;;;;;;3.05;2.83;;;18.70;83.90;;;;;;5068585;28;20205;-60
2022/05/21 00:16:07;;;;;;;3.15;2.88;;;18.80;84.00;;;;;;5058223;28;20711;-60
2022/05/21 00:18:34;;;;;;;2.67;2.47;;;18.70;84.00;;;;;;5057647;28;20562;-60
2022/05/21 00:21:01;;;;;;;2.25;2.15;;;18.70;84.10;;;;;;5067653;28;20197;-60
2022/05/21 00:23:31;;;;;;;2.15;2.05;;;18.70;84.20;;;;;;5067956;28;20205;-60
2022/05/21 00:26:01;;;;;;;2.95;2.70;;;18.70;84.30;;;;;;5069402;28;20204;-60
2022/05/21 00:28:29;;;;;;;2.60;2.40;;;18.70;84.50;;;;;;5059088;28;20185;-59
2022/05/21 00:30:57;;;;;;;3.00;2.80;;;18.70;84.60;;;;;;5069545;28;20196;-60
2022/05/21 00:33:26;;;;;;;2.30;2.20;;;18.70;84.60;;;;;;5067743;28;20217;-61
2022/05/21 00:35:54;;;;;;;2.50;2.30;;;18.70;85.40;;;;;;5068404;28;20220;-59
2022/05/21 00:38:22;;;;;;;2.03;1.92;;;18.70;84.80;;;;;;5062907;28;20684;-60
2022/05/21 00:40:50;;;;;;;1.92;1.83;;;18.70;85.00;;;;;;5068957;28;20211;-59
2022/05/21 00:43:39;;;;;;;2.80;2.60;;;18.70;85.00;;;;;;5069237;28;20591;-59
2022/05/21 00:46:09;;;;;;;3.47;3.17;;;18.70;85.10;;;;;;5069748;28;20203;-60
2022/05/21 00:48:38;;;;;;;2.55;2.35;;;18.70;85.30;;;;;;5069264;28;20221;-60
2022/05/21 00:51:09;;;;;;;2.60;2.40;;;18.70;85.50;;;;;;5069204;28;20201;-60
2022/05/21 00:53:36;;;;;;;2.00;1.90;;;18.70;85.70;;;;;;5067499;28;20201;-60
2022/05/21 00:56:04;;;;;;;2.13;2.03;;;18.60;85.90;;;;;;5061433;28;20247;-59
2022/05/21 01:01:19;;;;;;;2.08;1.98;;;18.70;86.20;;;;;;5069346;28;20299;-60
2022/05/21 01:03:46;;;;;;;2.30;2.20;;;18.70;86.20;;;;;;5066483;28;20185;-61
2022/05/21 01:06:14;;;;;;;2.03;1.80;;;18.80;86.40;;;;;;5067296;28;20212;-60
2022/05/21 01:08:41;;;;;;;2.83;2.63;;;18.80;86.40;;;;;;5067029;28;20185;-60
2022/05/21 01:11:12;;;;;;;3.08;2.78;;;18.80;86.50;;;;;;5068280;28;20193;-59
2022/05/21 01:13:42;;;;;;;3.15;2.88;;;18.80;86.50;;;;;;5068775;28;20193;-59
2022/05/21 01:16:11;;;;;;;2.88;2.67;;;18.80;86.70;;;;;;5057602;28;20185;-59
2022/05/21 01:18:40;;;;;;;2.88;2.67;;;18.80;86.80;;;;;;5068254;28;20205;-59
2022/05/21 01:21:08;;;;;;;3.10;2.80;;;18.70;86.90;;;;;;5068641;28;20209;-59
2022/05/21 01:23:37;;;;;;;2.30;2.20;;;18.70;87.00;;;;;;5067498;28;20209;-60
2022/05/21 01:26:07;;;;;;;2.08;1.98;;;18.70;87.20;;;;;;5066406;28;20186;-59
2022/05/21 01:28:37;;;;;;;2.10;2.00;;;18.70;87.30;;;;;;5068772;28;20614;-59
2022/05/21 01:31:05;;;;;;;2.67;2.08;;;18.70;87.40;;;;;;5068998;28;20201;-59
2022/05/21 01:33:34;;;;;;;3.10;2.40;;;18.70;88.30;;;;;;5068824;28;20603;-59
2022/05/21 01:36:02;;;;;;;2.03;1.92;;;18.70;87.70;;;;;;5068590;28;20197;-59
2022/05/21 01:38:32;;;;;;;2.58;2.40;;;18.70;87.80;;;;;;5065916;28;20221;-59
2022/05/21 01:41:01;;;;;;;5.72;3.65;;;18.70;88.70;;;;;;5068103;28;20193;-60
2022/05/21 01:46:15;;;;;;;7.07;4.90;;;18.60;88.30;;;;;;5063909;28;20232;-59
2022/05/21 01:48:42;;;;;;;4.47;4.07;;;18.60;88.50;;;;;;5071996;28;20507;-60
2022/05/21 01:51:10;;;;;;;4.80;4.28;;;18.60;88.70;;;;;;5072170;28;20284;-60
2022/05/21 01:53:39;;;;;;;4.68;4.28;;;18.60;88.80;;;;;;5070595;28;20196;-60
2022/05/21 01:56:09;;;;;;;6.25;4.38;;;18.50;88.80;;;;;;5071351;28;20676;-59
2022/05/21 01:58:36;;;;;;;3.58;3.28;;;18.50;89.00;;;;;;5072013;28;20201;-60
2022/05/21 02:01:05;;;;;;;3.10;2.90;;;18.50;89.10;;;;;;5072249;28;20193;-60
2022/05/21 02:03:32;;;;;;;2.60;2.40;;;18.50;89.20;;;;;;5071288;28;20637;-60
2022/05/21 02:06:00;;;;;;;2.78;2.58;;;18.40;89.30;;;;;;5071506;28;20209;-60
2022/05/21 02:08:27;;;;;;;2.80;2.60;;;18.40;89.50;;;;;;5069922;28;20660;-60
2022/05/21 02:10:54;;;;;;;3.00;2.80;;;18.40;89.60;;;;;;5070358;28;20667;-60
2022/05/21 02:13:24;;;;;;;3.40;3.10;;;18.40;89.60;;;;;;5071616;28;20189;-60
2022/05/21 02:15:52;;;;;;;2.75;2.53;;;18.40;89.70;;;;;;5067310;28;20213;-60
2022/05/21 02:18:19;;;;;;;4.53;3.00;;;18.50;89.80;;;;;;5071131;28;20220;-60
2022/05/21 02:20:48;;;;;;;2.78;2.58;;;18.50;89.80;;;;;;5071822;28;20231;-60
2022/05/21 02:23:16;;;;;;;2.13;2.03;;;17.90;89.30;;;;;;5069241;28;20200;-60
2022/05/21 02:25:45;;;;;;;2.90;2.70;;;18.40;89.90;;;;;;5069999;28;20554;-60
2022/05/21 02:28:13;;;;;;;2.45;2.25;;;18.40;90.00;;;;;;5071416;28;20553;-60
2022/05/21 02:30:43;;;;;;;2.90;2.53;;;18.40;90.00;;;;;;5071882;28;20253;-60
2022/05/21 02:33:10;;;;;;;2.43;2.33;;;18.40;90.00;;;;;;5071742;28;20560;-60
2022/05/21 02:35:37;;;;;;;1.90;1.80;;;18.40;90.00;;;;;;5071447;28;20204;-60
2022/05/21 02:40:50;;;;;;;2.20;2.10;;;18.40;90.00;;;;;;5071147;28;20553;-60
2022/05/21 02:43:17;;;;;;;1.95;1.85;;;18.40;90.00;;;;;;5070828;28;20542;-60
2022/05/21 02:45:47;;;;;;;2.25;2.15;;;18.40;90.10;;;;;;5071471;28;20201;-60
2022/05/21 02:48:14;;;;;;;2.17;2.08;;;18.40;90.10;;;;;;5070729;28;20235;-60
2022/05/21 02:50:41;;;;;;;4.97;1.77;;;18.40;90.00;;;;;;5070995;28;20192;-60
2022/05/21 02:53:16;;;;;;;1.70;1.60;;;18.40;90.00;;;;;;5069826;28;20194;-60
2022/05/21 02:55:43;;;;;;;2.22;2.10;;;18.40;90.10;;;;;;5063972;28;20557;-60
2022/05/21 02:58:10;;;;;;;1.90;1.80;;;18.40;90.10;;;;;;5070349;28;20581;-60
2022/05/21 03:00:37;;;;;;;1.92;1.83;;;18.40;90.20;;;;;;5071189;28;20201;-60
2022/05/21 03:03:06;;;;;;;1.92;1.83;;;18.40;90.20;;;;;;5068694;28;20572;-61
2022/05/21 03:05:33;;;;;;;2.10;2.00;;;18.50;90.20;;;;;;5071124;28;20192;-59
2022/05/21 03:10:20;;;;;;;3.23;3.03;;;18.50;90.30;;;;;;5067415;28;20211;-60
2022/05/21 03:10:50;;;;;;;4.72;4.30;;;18.40;90.30;;;;;;5070426;28;20291;-60
2022/05/21 03:13:17;;;;;;;4.30;3.58;;;18.40;90.40;;;;;;5068480;28;20655;-61
2022/05/21 03:15:44;;;;;;;3.07;2.83;;;18.40;90.40;;;;;;5059788;28;20208;-61
2022/05/21 03:18:14;;;;;;;3.67;3.03;;;18.40;90.40;;;;;;5069019;28;20576;-60
2022/05/21 03:20:42;;;;;;;3.05;2.75;;;18.40;90.40;;;;;;5070211;28;20193;-60
2022/05/21 03:23:10;;;;;;;2.80;2.60;;;18.40;90.40;;;;;;5067223;28;20258;-59
2022/05/21 03:25:38;;;;;;;3.22;2.92;;;18.40;90.40;;;;;;5070399;28;20195;-59
2022/05/21 03:28:06;;;;;;;3.28;2.97;;;18.30;90.40;;;;;;5070172;28;20204;-59
2022/05/21 03:30:34;;;;;;;2.53;2.37;;;18.30;90.50;;;;;;5071045;28;20193;-59
2022/05/21 03:33:01;;;;;;;2.70;2.50;;;18.20;90.60;;;;;;5066601;28;20204;-59
2022/05/21 03:35:32;;;;;;;3.22;2.92;;;18.30;90.60;;;;;;5070759;28;20667;-59
2022/05/21 03:38:00;;;;;;;2.80;2.60;;;18.30;90.60;;;;;;5065264;28;20200;-59
2022/05/21 03:40:30;;;;;;;2.97;2.70;;;18.30;90.60;;;;;;5102364;28;20192;-60
2022/05/21 03:42:57;;;;;;;2.92;2.72;;;18.30;90.60;;;;;;5070261;28;20644;-59
2022/05/21 03:45:25;;;;;;;2.80;2.60;;;18.30;90.70;;;;;;5068493;28;20211;-59
2022/05/21 03:47:52;;;;;;;2.33;2.22;;;18.30;90.80;;;;;;5069954;28;20232;-60
2022/05/21 03:50:22;;;;;;;2.22;2.13;;;18.30;90.80;;;;;;5070405;28;20657;-59
2022/05/21 03:52:51;;;;;;;3.13;2.92;;;18.30;90.80;;;;;;5066662;28;20514;-59
2022/05/21 03:55:18;;;;;;;3.53;3.22;;;18.30;90.90;;;;;;5070142;28;20197;-60
2022/05/21 03:57:46;;;;;;;3.38;2.60;;;18.30;90.90;;;;;;5070046;28;20745;-60
2022/05/21 04:00:15;;;;;;;3.00;2.80;;;18.30;91.00;;;;;;5070297;28;20693;-59
2022/05/21 04:02:43;;;;;;;2.40;2.30;;;18.20;91.00;;;;;;5069988;28;20200;-59
2022/05/21 04:05:12;;;;;;;3.20;2.90;;;18.20;91.10;;;;;;5068410;28;20570;-60
2022/05/21 04:07:40;;;;;;;2.78;2.58;;;18.20;91.20;;;;;;5068347;28;20203;-60
2022/05/21 04:10:11;;;;;;;2.15;2.05;;;18.20;91.30;;;;;;5069382;28;20208;-60
2022/05/21 04:12:38;;;;;;;2.00;1.90;;;18.30;91.40;;;;;;5069255;28;20199;-60
2022/05/21 04:15:07;;;;;;;2.55;2.35;;;18.30;91.40;;;;;;5065321;28;20198;-59
2022/05/21 04:17:34;;;;;;;2.60;2.40;;;18.30;91.40;;;;;;5069665;28;20189;-60
2022/05/21 04:20:01;;;;;;;3.10;2.80;;;18.30;91.50;;;;;;5060043;28;20475;-59
2022/05/21 04:22:28;;;;;;;2.60;2.40;;;18.30;91.50;;;;;;5065599;28;20321;-59
2022/05/21 04:24:56;;;;;;;2.40;2.30;;;18.30;91.50;;;;;;5069341;28;20296;-59
2022/05/21 04:27:24;;;;;;;2.20;2.10;;;18.30;91.60;;;;;;5069011;28;20194;-59
2022/05/21 04:29:52;;;;;;;3.92;3.45;;;18.30;91.70;;;;;;5068654;28;20189;-59
2022/05/21 04:32:19;;;;;;;10.65;7.55;;;18.30;91.80;;;;;;5068711;28;20485;-59
2022/05/21 04:34:46;;;;;;;6.72;6.03;;;18.30;92.20;;;;;;5069425;28;20259;-59
2022/05/21 04:37:14;;;;;;;5.47;4.97;;;18.20;92.30;;;;;;5067575;28;20213;-59
2022/05/21 04:39:41;;;;;;;4.88;4.45;;;18.10;92.60;;;;;;5068983;28;20208;-59
2022/05/21 04:42:08;;;;;;;7.80;4.43;;;18.00;92.80;;;;;;5068713;28;20220;-59
2022/05/21 04:44:37;;;;;;;4.85;4.45;;;17.90;93.10;;;;;;5069211;28;20219;-59
2022/05/21 04:47:06;;;;;;;4.20;3.60;;;17.90;93.30;;;;;;5068769;28;20236;-59
2022/05/21 04:49:34;;;;;;;6.15;4.85;;;18.00;93.50;;;;;;5069082;28;20657;-59
2022/05/21 04:52:05;;;;;;;6.38;4.97;;;18.00;93.70;;;;;;5067526;28;20657;-59
2022/05/21 04:54:32;;;;;;;3.03;2.80;;;18.00;93.90;;;;;;5068558;28;20302;-59
2022/05/21 04:56:59;;;;;;;3.05;2.80;;;18.00;94.00;;;;;;5067983;28;20196;-59
2022/05/21 04:59:27;;;;;;;3.05;2.75;;;17.90;94.20;;;;;;5068953;28;20554;-60
2022/05/21 05:01:56;;;;;;;2.65;2.45;;;17.90;94.40;;;;;;5101340;28;20214;-60
2022/05/21 05:04:23;;;;;;;2.35;2.15;;;17.90;94.60;;;;;;5065373;28;20533;-60
2022/05/21 05:06:51;;;;;;;1.90;1.80;;;17.90;94.80;;;;;;5068507;28;20203;-60
2022/05/21 05:09:22;;;;;;;2.35;2.15;;;17.90;95.00;;;;;;5067378;28;20193;-60
2022/05/21 05:11:50;;;;;;;4.72;2.65;;;18.00;95.10;;;;;;5067968;28;20554;-60
2022/05/21 05:14:17;;;;;;;2.67;2.47;;;18.00;95.20;;;;;;5068939;28;20208;-60
2022/05/21 05:16:44;;;;;;;4.22;3.38;;;18.10;95.30;;;;;;5057710;28;20232;-60
2022/05/21 05:19:13;;;;;;;3.15;2.95;;;18.10;95.50;;;;;;5068875;28;20303;-60
2022/05/21 05:21:40;;;;;;;2.78;2.28;;;18.10;95.60;;;;;;5071723;28;20196;-60
2022/05/21 05:24:07;;;;;;;5.65;3.67;;;18.10;95.70;;;;;;5071047;28;20576;-60
2022/05/21 05:26:34;;;;;;;3.72;3.42;;;18.10;96.10;;;;;;5072645;28;20207;-60
2022/05/21 05:29:02;;;;;;;3.92;3.45;;;18.10;96.20;;;;;;5071741;28;20192;-61
2022/05/21 05:31:29;;;;;;;3.20;2.90;;;18.10;96.30;;;;;;5072623;28;20231;-60
2022/05/21 05:33:57;;;;;;;4.65;2.90;;;18.00;96.50;;;;;;5072513;28;20298;-60
2022/05/21 05:36:25;;;;;;;4.60;2.97;;;18.00;96.70;;;;;;5072005;28;20658;-58
2022/05/21 05:38:53;;;;;;;2.95;2.20;;;18.00;96.90;;;;;;5070652;28;20212;-59
2022/05/21 05:41:20;;;;;;;2.20;2.10;;;18.10;97.10;;;;;;5072349;28;20198;-59
2022/05/21 05:43:47;;;;;;;4.90;2.42;;;18.10;97.10;;;;;;5070677;28;20209;-59
2022/05/21 05:46:14;;;;;;;2.30;2.20;;;18.10;97.20;;;;;;5072266;28;20206;-59
2022/05/21 05:48:41;;;;;;;2.70;2.50;;;18.10;97.20;;;;;;5071291;28;20240;-59
2022/05/21 05:51:08;;;;;;;3.20;2.92;;;18.10;97.30;;;;;;5071781;28;20196;-59
2022/05/21 05:53:37;;;;;;;3.03;2.60;;;18.10;97.50;;;;;;5070598;28;20644;-59
2022/05/21 05:56:08;;;;;;;2.53;2.40;;;18.10;97.60;;;;;;5071974;28;20270;-59
2022/05/21 06:01:22;;;;;;;2.45;2.30;;;18.10;97.80;;;;;;5072347;28;20274;-58
2022/05/21 06:03:49;;;;;;;2.30;2.10;;;18.10;97.90;;;;;;5070144;28;20667;-59
2022/05/21 06:06:17;;;;;;;2.03;1.93;;;18.20;98.10;;;;;;5071547;28;20200;-59
2022/05/21 06:08:46;;;;;;;2.10;1.90;;;18.10;98.10;;;;;;5069346;28;20196;-59
2022/05/21 06:11:13;;;;;;;2.25;2.15;;;18.20;98.20;;;;;;5071048;28;20196;-59
2022/05/21 06:13:40;;;;;;;2.20;2.00;;;18.20;98.30;;;;;;5071844;28;20309;-59
2022/05/21 06:16:08;;;;;;;2.17;2.08;;;18.20;98.30;;;;;;5067119;28;20207;-59
2022/05/21 06:18:35;;;;;;;1.90;1.80;;;18.20;98.40;;;;;;5071533;28;20196;-59
2022/05/21 06:21:03;;;;;;;3.58;2.00;;;18.30;98.40;;;;;;5071566;28;20656;-59
2022/05/21 06:23:31;;;;;;;2.57;2.37;;;18.30;98.50;;;;;;5068629;28;20538;-59
2022/05/21 06:26:00;;;;;;;2.85;2.65;;;18.30;98.60;;;;;;5071220;28;20207;-59
2022/05/21 06:28:27;;;;;;;3.10;2.90;;;18.30;98.60;;;;;;5071540;28;20205;-59
2022/05/21 06:30:54;;;;;;;2.83;2.63;;;18.20;98.70;;;;;;5071554;28;20279;-59
2022/05/21 06:33:24;;;;;;;2.97;2.78;;;18.20;98.90;;;;;;5070920;28;20211;-59
2022/05/21 06:36:03;;;;;;;2.67;2.40;;;18.20;99.00;;;;;;5071673;28;20211;-61
2022/05/21 06:38:31;;;;;;;2.72;2.53;;;18.20;99.10;;;;;;5070308;28;20227;-60
2022/05/21 06:40:59;;;;;;;2.60;2.40;;;18.20;99.10;;;;;;5103538;28;20254;-60
2022/05/21 06:43:26;;;;;;;2.47;2.28;;;18.20;99.20;;;;;;5071335;28;20202;-60
2022/05/21 06:45:53;;;;;;;3.72;2.10;;;18.20;99.30;;;;;;5070822;28;20204;-60
2022/05/21 06:48:20;;;;;;;2.63;2.38;;;18.20;99.40;;;;;;5070924;28;20239;-59
2022/05/21 06:50:48;;;;;;;3.60;2.97;;;18.20;99.40;;;;;;5071109;28;20201;-59
2022/05/21 06:53:15;;;;;;;2.50;2.30;;;18.20;99.50;;;;;;5069165;28;20229;-59
2022/05/21 06:55:43;;;;;;;2.60;2.40;;;18.20;99.50;;;;;;5070501;28;20195;-60
2022/05/21 06:58:12;;;;;;;2.83;2.63;;;18.20;99.60;;;;;;5071021;28;20206;-60
2022/05/21 07:00:39;;;;;;;2.88;2.63;;;18.20;99.70;;;;;;5071001;28;20208;-59
2022/05/21 07:03:06;;;;;;;2.83;2.63;;;18.20;99.70;;;;;;5070459;28;20196;-59
2022/05/21 07:08:21;;;;;;;4.97;3.83;;;18.20;99.80;;;;;;5069258;28;20695;-59
2022/05/21 07:10:48;;;;;;;4.43;4.00;;;18.20;99.90;;;;;;5070761;28;20203;-59
2022/05/21 07:13:18;;;;;;;3.35;3.05;;;18.20;99.90;;;;;;5068231;28;20250;-59
2022/05/21 07:15:47;;;;;;;3.47;3.17;;;18.20;99.90;;;;;;5060096;28;20227;-59
2022/05/21 07:18:18;;;;;;;2.63;2.42;;;18.20;99.90;;;;;;5070337;28;20192;-59
2022/05/21 07:20:45;;;;;;;3.05;2.85;;;18.20;99.90;;;;;;5070213;28;20223;-59
2022/05/21 07:23:13;;;;;;;2.97;2.78;;;18.20;99.90;;;;;;5068873;28;20208;-59
2022/05/21 07:25:41;;;;;;;3.08;2.83;;;18.20;99.90;;;;;;5070938;28;20205;-59
2022/05/21 07:28:08;;;;;;;3.17;2.88;;;18.20;99.90;;;;;;5070169;28;20196;-59
2022/05/21 07:30:38;;;;;;;7.68;4.82;;;18.20;99.90;;;;;;5070978;28;20192;-60
2022/05/21 07:33:09;;;;;;;4.28;3.88;;;18.20;99.90;;;;;;5069685;28;20220;-60
2022/05/21 07:35:37;;;;;;;4.27;3.80;;;18.20;99.90;;;;;;5071369;28;20640;-59
2022/05/21 07:38:05;;;;;;;7.90;5.18;;;18.20;99.90;;;;;;5068666;28;20200;-59
2022/05/21 07:40:32;;;;;;;7.65;5.75;;;18.20;99.90;;;;;;5070511;28;20227;-59
2022/05/21 07:42:59;;;;;;;6.75;5.95;;;18.20;99.90;;;;;;5070197;28;20240;-60
2022/05/21 07:45:26;;;;;;;5.22;3.40;;;18.20;99.90;;;;;;5070857;28;20212;-59
2022/05/21 07:47:56;;;;;;;2.30;2.10;;;18.10;99.90;;;;;;5070297;28;20240;-59
2022/05/21 07:50:24;;;;;;;1.67;1.58;;;18.10;99.90;;;;;;5070626;28;20191;-59
2022/05/21 07:52:51;;;;;;;1.15;1.15;;;18.00;99.90;;;;;;5068402;28;20680;-60
2022/05/21 07:55:18;;;;;;;1.00;1.00;;;17.90;99.90;;;;;;5070328;28;20197;-60
2022/05/21 07:57:46;;;;;;;1.30;1.20;;;17.90;99.90;;;;;;5069662;28;20212;-60
2022/05/21 08:00:17;;;;;;;1.25;1.25;;;17.80;99.90;;;;;;5069963;28;20212;-59
2022/05/21 08:02:45;;;;;;;1.27;1.17;;;17.70;99.90;;;;;;5069675;28;20277;-59
2022/05/21 08:05:14;;;;;;;1.13;1.13;;;17.70;99.90;;;;;;5069188;28;20289;-60
2022/05/21 08:07:43;;;;;;;1.48;1.30;;;17.70;99.90;;;;;;5068141;28;20287;-60
2022/05/21 08:10:10;;;;;;;1.00;1.00;;;17.60;99.90;;;;;;5069346;28;20200;-60
2022/05/21 08:12:38;;;;;;;1.38;1.25;;;17.50;99.90;;;;;;5069696;28;20574;-60
2022/05/21 08:15:06;;;;;;;3.40;1.47;;;17.50;99.90;;;;;;5064737;28;20562;-60
2022/05/21 08:17:34;;;;;;;1.75;1.40;;;17.50;99.90;;;;;;5069559;28;20274;-60
2022/05/21 08:20:01;;;;;;;1.30;1.20;;;17.40;99.90;;;;;;5069461;28;20204;-60
2022/05/21 08:27:58;;;;;;;1.20;1.20;;;17.30;99.90;;;;;;5069029;28;20196;-59
2022/05/21 08:30:26;;;;;;;1.17;1.15;;;17.30;99.90;;;;;;5101095;28;20238;-60
2022/05/21 08:33:00;;;;;;;1.00;1.00;;;17.20;99.90;;;;;;5069045;28;20256;-59
2022/05/21 08:35:28;;;;;;;0.80;0.80;;;17.20;99.90;;;;;;5069266;28;20243;-59
2022/05/21 08:37:56;;;;;;;1.10;1.10;;;17.20;99.90;;;;;;5067152;28;20198;-59
2022/05/21 08:40:30;;;;;;;1.00;1.00;;;17.20;99.90;;;;;;5101475;28;20241;-59
2022/05/21 08:42:59;;;;;;;0.88;0.88;;;17.20;99.90;;;;;;5069649;28;20297;-59
2022/05/21 08:45:32;;;;;;;0.80;0.80;;;17.20;99.90;;;;;;5068882;28;20194;-58
2022/05/21 08:48:01;;;;;;;0.80;0.80;;;17.20;99.90;;;;;;5068855;28;20291;-59
2022/05/21 08:50:33;;;;;;;0.77;0.77;;;17.20;99.90;;;;;;5068427;28;20204;-59
2022/05/21 08:53:06;;;;;;;1.57;0.70;;;17.10;99.90;;;;;;5066182;28;20710;-59
2022/05/21 08:55:37;;;;;;;0.60;0.60;;;17.10;99.90;;;;;;5068836;28;20208;-59
2022/05/21 08:58:10;;;;;;;0.53;0.53;;;17.00;99.90;;;;;;5067849;28;20206;-58
2022/05/21 09:00:41;;;;;;;0.50;0.50;;;17.00;99.90;;;;;;5069515;28;20452;-58
2022/05/21 09:03:11;;;;;;;0.63;0.53;;;16.90;99.90;;;;;;5066146;28;20193;-58
2022/05/21 09:05:42;;;;;;;2.70;0.60;;;16.80;99.90;;;;;;5068746;28;20292;-58
2022/05/21 09:08:19;;;;;;;0.67;0.67;;;16.80;99.90;;;;;;5067654;28;20679;-59
2022/05/21 09:11:01;;;;;;;0.30;0.30;;;16.60;99.90;;;;;;5083889;28;20205;-59
2022/05/21 09:13:37;;;;;;;1.90;0.50;;;16.60;99.90;;;;;;5065728;28;20251;-59
2022/05/21 09:18:50;;;;;;;0.50;0.50;;;16.50;99.90;;;;;;5069012;28;20704;-59
2022/05/21 09:21:20;;;;;;;0.60;0.60;;;16.60;99.90;;;;;;5067347;28;20221;-59
2022/05/21 09:23:52;;;;;;;0.60;0.60;;;16.60;99.90;;;;;;5066331;28;20209;-59
2022/05/21 09:26:21;;;;;;;0.87;0.80;;;16.60;99.90;;;;;;5068317;28;20418;-60
2022/05/21 09:28:49;;;;;;;0.60;0.60;;;16.60;99.90;;;;;;5068469;28;20204;-59
2022/05/21 09:31:24;;;;;;;0.63;0.63;;;16.60;99.90;;;;;;5069017;28;20334;-59
2022/05/21 09:33:51;;;;;;;0.40;0.40;;;16.60;99.90;;;;;;5068954;28;20217;-59
2022/05/21 09:36:31;;;;;;;0.40;0.40;;;16.50;99.90;;;;;;5067096;28;20217;-59
2022/05/21 09:39:00;;;;;;;0.47;0.47;;;16.50;99.90;;;;;;5067226;28;20281;-59
2022/05/21 09:41:28;;;;;;;0.50;0.50;;;16.40;99.90;;;;;;5068711;28;20209;-59
2022/05/21 09:46:46;;;;;;;0.50;0.50;;;16.50;99.90;;;;;;5068212;28;20581;-59
2022/05/21 09:49:19;;;;;;;0.30;0.30;;;16.50;99.90;;;;;;5068316;28;20194;-59
2022/05/21 09:51:55;;;;;;;0.97;0.50;;;16.60;99.90;;;;;;5068552;28;20189;-60
2022/05/21 09:54:26;;;;;;;0.37;0.37;;;16.60;99.90;;;;;;5067156;28;20193;-59
2022/05/21 09:56:57;;;;;;;0.40;0.40;;;16.50;99.90;;;;;;5068618;28;20656;-59
2022/05/21 09:59:28;;;;;;;0.40;0.40;;;16.50;99.90;;;;;;5068626;28;20204;-60
2022/05/21 10:01:57;;;;;;;1.93;0.40;;;16.50;99.90;;;;;;5068410;28;20302;-60
2022/05/21 10:04:31;;;;;;;0.40;0.40;;;16.50;99.90;;;;;;5066361;28;20565;-60
2022/05/21 10:07:10;;;;;;;0.30;0.30;;;16.60;99.90;;;;;;5067352;28;20197;-60
2022/05/21 10:12:31;;;;;;;0.37;0.37;;;16.80;99.40;;;;;;5067113;28;20208;-60
2022/05/21 10:15:04;;;;;;;0.30;0.30;;;16.90;99.20;;;;;;5071758;28;20284;-60
2022/05/21 10:17:34;;;;;;;0.40;0.40;;;17.00;99.00;;;;;;5069970;28;20226;-59
2022/05/21 10:20:13;;;;;;;0.40;0.40;;;17.10;98.90;;;;;;5072182;28;20203;-59
2022/05/21 10:22:48;;;;;;;0.52;0.50;;;17.10;98.50;;;;;;5070396;28;20195;-59
2022/05/21 10:25:19;;;;;;;0.50;0.40;;;17.20;98.10;;;;;;5067609;28;20661;-59
2022/05/21 10:28:03;;;;;;;0.30;0.30;;;17.20;97.90;;;;;;5071598;28;20187;-59
2022/05/21 10:30:42;;;;;;;1.27;0.60;;;17.20;97.60;;;;;;5072229;28;20205;-59
2022/05/21 10:33:16;;;;;;;0.40;0.40;;;17.20;97.40;;;;;;5071914;28;20268;-59
2022/05/21 10:36:07;;;;;;;0.40;0.40;;;17.20;97.30;;;;;;5071186;28;20231;-59
2022/05/21 10:38:45;;;;;;;0.30;0.30;;;17.30;97.20;;;;;;5060426;28;20753;-59
2022/05/21 10:41:28;;;;;;;0.60;0.60;;;17.30;97.00;;;;;;5071163;28;20209;-59
2022/05/21 10:44:05;;;;;;;0.50;0.50;;;17.40;96.80;;;;;;5071685;28;20645;-59
2022/05/21 10:46:46;;;;;;;0.33;0.33;;;17.30;96.40;;;;;;5071378;28;20641;-59
2022/05/21 10:49:48;;;;;;;0.30;0.30;;;17.30;96.30;;;;;;5096842;28;20266;-59
2022/05/21 10:52:23;;;;;;;0.60;0.60;;;17.30;96.30;;;;;;5061069;28;20205;-59
2022/05/21 10:55:02;;;;;;;0.50;0.50;;;17.30;96.00;;;;;;5072004;28;20210;-59
2022/05/21 10:57:54;;;;;;;0.40;0.40;;;17.30;95.90;;;;;;5071536;28;20541;-59
2022/05/21 11:00:29;;;;;;;1.27;0.60;;;17.30;95.80;;;;;;5068824;28;20577;-59
2022/05/21 11:03:21;;;;;;;0.53;0.53;;;17.30;95.80;;;;;;5070120;28;20199;-59
2022/05/21 11:05:59;;;;;;;0.50;0.50;;;17.40;95.60;;;;;;5070453;28;20457;-59
2022/05/21 11:08:33;;;;;;;0.50;0.50;;;17.40;95.20;;;;;;5068834;28;20190;-59
2022/05/21 11:11:05;;;;;;;0.60;0.60;;;17.40;95.00;;;;;;5071111;28;20201;-59
2022/05/21 11:13:38;;;;;;;0.40;0.40;;;17.50;95.00;;;;;;5071555;28;20266;-60
2022/05/21 11:16:12;;;;;;;0.47;0.47;;;17.60;94.80;;;;;;5068461;28;20696;-59
2022/05/21 11:18:44;;;;;;;0.50;0.50;;;17.70;94.60;;;;;;5070905;28;20265;-60
2022/05/21 11:21:19;;;;;;;1.40;0.50;;;17.80;94.20;;;;;;5067339;28;20624;-60
2022/05/21 11:23:58;;;;;;;1.03;0.60;;;17.80;93.70;;;;;;5080122;28;20287;-60
2022/05/21 11:26:33;;;;;;;0.50;0.50;;;17.80;93.30;;;;;;5061275;28;20214;-60
2022/05/21 11:29:11;;;;;;;0.63;0.60;;;17.80;93.30;;;;;;5070546;28;20604;-60
2022/05/21 11:37:22;;;;;;;0.40;0.40;;;18.00;92.70;;;;;;5063773;28;20244;-60
2022/05/21 11:39:56;;;;;;;0.50;0.50;;;18.00;92.30;;;;;;5070487;28;20277;-60
2022/05/21 11:42:24;;;;;;;0.30;0.30;;;18.10;92.20;;;;;;5070327;28;20203;-60
2022/05/21 11:45:02;;;;;;;1.60;1.30;;;18.00;92.10;;;;;;5070239;28;20193;-60
2022/05/21 11:47:54;;;;;;;1.63;1.52;;;18.00;91.80;;;;;;5068761;28;20247;-59
2022/05/21 11:50:27;;;;;;;0.90;0.90;;;18.00;91.70;;;;;;5060434;28;20219;-59
2022/05/21 11:53:01;;;;;;;0.60;0.60;;;17.90;91.50;;;;;;5068174;28;20473;-59
2022/05/21 11:55:30;;;;;;;0.77;0.60;;;17.80;91.40;;;;;;5070725;28;20201;-59
2022/05/21 11:57:59;;;;;;;0.67;0.67;;;17.80;91.60;;;;;;5070107;28;20594;-60
2022/05/21 12:00:52;;;;;;;0.80;0.80;;;17.70;91.70;;;;;;5070292;28;20549;-59
2022/05/21 12:03:22;;;;;;;0.60;0.60;;;17.60;91.90;;;;;;5056976;28;20210;-59
2022/05/21 12:06:09;;;;;;;0.70;0.70;;;17.60;92.00;;;;;;5067730;28;20195;-59
2022/05/21 12:08:48;;;;;;;0.50;0.50;;;17.40;92.00;;;;;;5069115;28;20203;-59
2022/05/21 12:11:45;;;;;;;0.77;0.70;;;17.30;92.30;;;;;;5069562;28;20194;-59
2022/05/21 12:14:27;;;;;;;0.50;0.50;;;17.30;92.40;;;;;;5026943;28;20206;-59
2022/05/21 12:16:59;;;;;;;0.50;0.50;;;17.30;92.20;;;;;;5061972;28;20213;-58
2022/05/21 12:20:01;;;;;;;0.55;0.52;;;17.30;92.30;;;;;;5069460;28;20227;-58
2022/05/21 12:22:44;;;;;;;0.50;0.50;;;17.20;92.10;;;;;;5067628;28;20216;-58
2022/05/21 12:25:32;;;;;;;0.70;0.70;;;17.20;92.10;;;;;;5102676;28;20206;-59
2022/05/21 12:28:04;;;;;;;0.60;0.60;;;17.20;92.10;;;;;;5068784;28;20206;-59
2022/05/21 12:30:32;;;;;;;0.70;0.70;;;17.20;92.10;;;;;;5070025;28;20190;-59
2022/05/21 12:32:59;;;;;;;0.70;0.70;;;17.30;92.20;;;;;;5069603;28;20226;-59
2022/05/21 12:35:44;;;;;;;2.37;0.67;;;17.30;92.20;;;;;;5070149;28;20571;-60
2022/05/21 12:38:21;;;;;;;0.50;0.50;;;17.30;91.90;;;;;;5061607;28;20194;-59
2022/05/21 12:40:58;;;;;;;0.60;0.60;;;17.30;92.00;;;;;;5068784;28;20200;-60
2022/05/21 12:43:26;;;;;;;0.60;0.60;;;17.40;92.00;;;;;;5069511;28;20190;-59
2022/05/21 12:45:54;;;;;;;0.90;0.90;;;17.50;91.90;;;;;;5069630;28;20192;-59
2022/05/21 12:48:24;;;;;;;1.17;1.17;;;17.50;91.60;;;;;;5066670;28;20236;-59
2022/05/21 12:50:54;;;;;;;1.00;0.90;;;17.50;91.30;;;;;;5066256;28;20256;-59
2022/05/21 12:53:27;;;;;;;0.60;0.60;;;17.40;91.10;;;;;;5067748;28;20297;-60
2022/05/21 12:56:00;;;;;;;2.27;0.87;;;17.30;91.10;;;;;;5069724;28;20203;-60
2022/05/21 12:58:29;;;;;;;1.27;0.70;;;17.30;91.00;;;;;;5067423;28;20220;-59
2022/05/21 13:00:59;;;;;;;0.80;0.80;;;17.30;90.90;;;;;;5069446;28;20214;-60
2022/05/21 13:03:32;;;;;;;0.73;0.73;;;17.30;91.10;;;;;;5063832;28;20191;-59
2022/05/21 13:06:01;;;;;;;2.00;0.73;;;17.20;91.10;;;;;;5067413;28;20198;-60
2022/05/21 13:08:29;;;;;;;0.70;0.70;;;17.20;91.10;;;;;;5067052;28;20195;-59
2022/05/21 13:11:01;;;;;;;0.60;0.60;;;17.10;91.00;;;;;;5068409;28;20219;-59
2022/05/21 13:13:35;;;;;;;0.60;0.60;;;17.10;91.10;;;;;;5069596;28;20682;-60
2022/05/21 13:16:05;;;;;;;0.60;0.60;;;17.10;91.20;;;;;;5069105;28;20549;-59
2022/05/21 13:18:54;;;;;;;0.80;0.80;;;17.10;91.30;;;;;;5068856;28;20654;-59
2022/05/21 13:21:32;;;;;;;0.70;0.70;;;17.10;91.20;;;;;;5058889;28;20198;-60
2022/05/21 13:24:12;;;;;;;0.80;0.80;;;17.20;91.20;;;;;;5067472;28;20213;-60
2022/05/21 13:26:40;;;;;;;0.83;0.70;;;17.20;91.00;;;;;;5069754;28;20281;-59
2022/05/21 13:29:25;;;;;;;0.70;0.70;;;17.20;90.90;;;;;;5068532;28;20233;-60
2022/05/21 13:31:54;;;;;;;1.37;0.60;;;17.30;90.90;;;;;;5069108;28;20203;-60
2022/05/21 13:34:25;;;;;;;0.80;0.80;;;17.30;90.60;;;;;;5069272;28;20193;-60
2022/05/21 13:37:02;;;;;;;0.50;0.50;;;17.30;90.60;;;;;;5068196;28;20197;-59
2022/05/21 13:39:31;;;;;;;0.80;0.80;;;17.30;90.10;;;;;;5068970;28;20226;-59